sensor_id;sensor_type;location;lat;lon;timestamp;pressure;altitude;pressure_sealevel;temperature;humidity
75312;BME280;63906;55.686;37.532;2022-12-10T00:04:05;99429.91;;;-2.13;78.30
75312;BME280;63906;55.686;37.532;2022-12-10T00:09:07;99400.03;;;-2.16;78.16
75312;BME280;63906;55.686;37.532;2022-12-10T00:14:10;99427.88;;;-1.86;78.00
75312;BME280;63906;55.686;37.532;2022-12-10T00:19:11;99406.47;;;-1.99;77.75
75312;BME280;63906;55.686;37.532;2022-12-10T00:24:12;99411.31;;;-1.83;77.13
75312;BME280;63906;55.686;37.532;2022-12-10T00:29:12;99386.56;;;-2.08;77.99
75312;BME280;63906;55.686;37.532;2022-12-10T00:34:13;99402.75;;;-1.95;78.37
75312;BME280;63906;55.686;37.532;2022-12-10T00:39:16;99407.22;;;-1.86;78.63
75312;BME280;63906;55.686;37.532;2022-12-10T00:44:17;99390.91;;;-1.98;78.25
75312;BME280;63906;55.686;37.532;2022-12-10T00:49:17;99408.97;;;-1.75;78.70
75312;BME280;63906;55.686;37.532;2022-12-10T00:54:18;99406.06;;;-1.71;78.46
75312;BME280;63906;55.686;37.532;2022-12-10T00:59:18;99376.25;;;-1.64;77.43
75312;BME280;63906;55.686;37.532;2022-12-10T01:04:19;99368.75;;;-1.67;78.48
75312;BME280;63906;55.686;37.532;2022-12-10T01:09:22;99342.50;;;-1.83;78.55
75312;BME280;63906;55.686;37.532;2022-12-10T01:14:27;99337.81;;;-1.89;78.50
75312;BME280;63906;55.686;37.532;2022-12-10T01:19:29;99328.31;;;-1.77;78.91
75312;BME280;63906;55.686;37.532;2022-12-10T01:24:30;99340.47;;;-1.68;78.47
75312;BME280;63906;55.686;37.532;2022-12-10T01:29:30;99357.50;;;-1.77;78.86
75312;BME280;63906;55.686;37.532;2022-12-10T01:34:31;99336.72;;;-1.75;79.49
75312;BME280;63906;55.686;37.532;2022-12-10T01:39:31;99348.81;;;-1.65;79.26
75312;BME280;63906;55.686;37.532;2022-12-10T01:49:35;99355.13;;;-1.46;78.90
75312;BME280;63906;55.686;37.532;2022-12-10T01:54:39;99361.59;;;-1.63;79.20
75312;BME280;63906;55.686;37.532;2022-12-10T01:59:40;99340.84;;;-1.73;79.02
75312;BME280;63906;55.686;37.532;2022-12-10T02:10:17;99374.38;;;-1.50;78.47
75312;BME280;63906;55.686;37.532;2022-12-10T02:15:33;99380.09;;;-1.36;78.22
75312;BME280;63906;55.686;37.532;2022-12-10T02:20:39;99340.09;;;-1.41;77.75
75312;BME280;63906;55.686;37.532;2022-12-10T02:25:43;99365.38;;;-1.13;78.45
75312;BME280;63906;55.686;37.532;2022-12-10T02:30:46;99350.63;;;-1.22;78.45
75312;BME280;63906;55.686;37.532;2022-12-10T02:35:50;99331.41;;;-1.40;77.79
75312;BME280;63906;55.686;37.532;2022-12-10T02:40:55;99354.38;;;-1.26;78.08
75312;BME280;63906;55.686;37.532;2022-12-10T02:45:58;99356.75;;;-1.34;78.32
75312;BME280;63906;55.686;37.532;2022-12-10T02:51:00;99344.13;;;-1.48;78.84
75312;BME280;63906;55.686;37.532;2022-12-10T02:56:54;99334.13;;;-1.42;78.69
75312;BME280;63906;55.686;37.532;2022-12-10T03:07:00;99325.09;;;-1.47;79.07
75312;BME280;63906;55.686;37.532;2022-12-10T03:12:08;99344.03;;;-1.26;78.64
75312;BME280;63906;55.686;37.532;2022-12-10T03:17:13;99337.72;;;-1.33;78.73
75312;BME280;63906;55.686;37.532;2022-12-10T03:22:16;99340.66;;;-1.38;78.14
75312;BME280;63906;55.686;37.532;2022-12-10T03:27:20;99337.03;;;-1.35;78.00
75312;BME280;63906;55.686;37.532;2022-12-10T03:32:23;99318.31;;;-1.48;78.24
75312;BME280;63906;55.686;37.532;2022-12-10T03:37:27;99328.72;;;-1.50;78.65
75312;BME280;63906;55.686;37.532;2022-12-10T03:42:28;99313.00;;;-1.47;78.56
75312;BME280;63906;55.686;37.532;2022-12-10T03:47:28;99310.56;;;-1.48;77.45
75312;BME280;63906;55.686;37.532;2022-12-10T03:52:29;99340.66;;;-1.38;78.19
75312;BME280;63906;55.686;37.532;2022-12-10T03:57:29;99322.28;;;-1.55;78.53
75312;BME280;63906;55.686;37.532;2022-12-10T04:02:30;99339.84;;;-1.38;77.74
75312;BME280;63906;55.686;37.532;2022-12-10T04:07:30;99343.22;;;-1.26;77.94
75312;BME280;63906;55.686;37.532;2022-12-10T04:12:31;99337.00;;;-1.24;78.01
75312;BME280;63906;55.686;37.532;2022-12-10T04:17:32;99343.81;;;-1.23;78.25
75312;BME280;63906;55.686;37.532;2022-12-10T04:22:36;99331.94;;;-1.14;77.76
75312;BME280;63906;55.686;37.532;2022-12-10T04:27:55;99339.06;;;-1.06;76.89
75312;BME280;63906;55.686;37.532;2022-12-10T04:32:56;99350.16;;;-0.95;77.47
75312;BME280;63906;55.686;37.532;2022-12-10T04:37:56;99345.41;;;-0.99;75.92
75312;BME280;63906;55.686;37.532;2022-12-10T04:42:57;99339.47;;;-0.90;76.97
75312;BME280;63906;55.686;37.532;2022-12-10T04:47:57;99305.75;;;-1.10;76.80
75312;BME280;63906;55.686;37.532;2022-12-10T04:52:58;99307.41;;;-1.20;76.60
75312;BME280;63906;55.686;37.532;2022-12-10T04:57:58;99323.72;;;-0.87;77.66
75312;BME280;63906;55.686;37.532;2022-12-10T05:02:59;99301.59;;;-1.01;76.46
75312;BME280;63906;55.686;37.532;2022-12-10T05:07:59;99303.34;;;-1.01;76.73
75312;BME280;63906;55.686;37.532;2022-12-10T05:13:00;99324.78;;;-0.90;77.02
75312;BME280;63906;55.686;37.532;2022-12-10T05:18:00;99308.97;;;-0.96;77.54
75312;BME280;63906;55.686;37.532;2022-12-10T05:23:01;99306.88;;;-1.02;77.79
75312;BME280;63906;55.686;37.532;2022-12-10T05:28:22;99341.28;;;-1.02;77.67
75312;BME280;63906;55.686;37.532;2022-12-10T05:33:24;99316.56;;;-1.16;77.38
75312;BME280;63906;55.686;37.532;2022-12-10T05:38:25;99340.84;;;-1.18;77.93
75312;BME280;63906;55.686;37.532;2022-12-10T05:43:25;99326.53;;;-1.11;77.99
75312;BME280;63906;55.686;37.532;2022-12-10T05:48:27;99310.22;;;-1.12;78.31
75312;BME280;63906;55.686;37.532;2022-12-10T05:53:28;99332.41;;;-1.20;77.78
75312;BME280;63906;55.686;37.532;2022-12-10T05:58:29;99323.72;;;-1.19;77.80
75312;BME280;63906;55.686;37.532;2022-12-10T06:03:30;99316.97;;;-0.99;78.63
75312;BME280;63906;55.686;37.532;2022-12-10T06:08:31;99301.72;;;-1.02;78.03
75312;BME280;63906;55.686;37.532;2022-12-10T06:13:32;99319.56;;;-0.99;77.71
75312;BME280;63906;55.686;37.532;2022-12-10T06:18:33;99328.00;;;-0.76;78.46
75312;BME280;63906;55.686;37.532;2022-12-10T06:23:35;99306.88;;;-0.82;78.58
75312;BME280;63906;55.686;37.532;2022-12-10T06:28:36;99303.81;;;-0.75;78.72
75312;BME280;63906;55.686;37.532;2022-12-10T06:33:37;99300.41;;;-0.76;78.40
75312;BME280;63906;55.686;37.532;2022-12-10T06:38:38;99294.09;;;-0.83;78.29
75312;BME280;63906;55.686;37.532;2022-12-10T06:43:38;99301.47;;;-0.58;78.67
75312;BME280;63906;55.686;37.532;2022-12-10T06:48:39;99312.13;;;-0.72;78.02
75312;BME280;63906;55.686;37.532;2022-12-10T06:53:40;99285.78;;;-0.66;78.26
75312;BME280;63906;55.686;37.532;2022-12-10T06:58:41;99294.81;;;-0.60;78.80
75312;BME280;63906;55.686;37.532;2022-12-10T07:03:42;99283.34;;;-0.67;77.31
75312;BME280;63906;55.686;37.532;2022-12-10T07:08:43;99307.09;;;-0.52;77.55
75312;BME280;63906;55.686;37.532;2022-12-10T07:13:44;99294.34;;;-0.44;77.18
75312;BME280;63906;55.686;37.532;2022-12-10T07:18:53;99311.34;;;-0.21;77.86
75312;BME280;63906;55.686;37.532;2022-12-10T07:23:56;99304.47;;;-0.32;78.08
75312;BME280;63906;55.686;37.532;2022-12-10T07:28:59;99311.56;;;-0.34;78.34
75312;BME280;63906;55.686;37.532;2022-12-10T07:34:00;99306.75;;;-0.38;78.02
75312;BME280;63906;55.686;37.532;2022-12-10T07:39:00;99318.22;;;-0.31;77.63
75312;BME280;63906;55.686;37.532;2022-12-10T07:44:02;99319.69;;;-0.17;78.44
75312;BME280;63906;55.686;37.532;2022-12-10T07:49:02;99298.56;;;-0.13;78.28
75312;BME280;63906;55.686;37.532;2022-12-10T07:54:03;99290.41;;;0.13;78.97
75312;BME280;63906;55.686;37.532;2022-12-10T07:59:04;99274.44;;;0.08;79.32
75312;BME280;63906;55.686;37.532;2022-12-10T08:04:04;99272.28;;;0.13;79.12
75312;BME280;63906;55.686;37.532;2022-12-10T08:09:05;99279.09;;;0.14;78.60
75312;BME280;63906;55.686;37.532;2022-12-10T08:14:05;99300.66;;;0.34;78.35
75312;BME280;63906;55.686;37.532;2022-12-10T08:19:06;99299.84;;;0.43;78.73
75312;BME280;63906;55.686;37.532;2022-12-10T08:24:06;99265.09;;;0.26;78.68
75312;BME280;63906;55.686;37.532;2022-12-10T08:29:07;99281.34;;;0.47;79.06
75312;BME280;63906;55.686;37.532;2022-12-10T08:34:16;99251.91;;;0.48;78.89
75312;BME280;63906;55.686;37.532;2022-12-10T08:39:17;99283.13;;;0.57;79.00
75312;BME280;63906;55.686;37.532;2022-12-10T08:44:17;99281.72;;;0.43;79.53
75312;BME280;63906;55.686;37.532;2022-12-10T08:49:18;99274.78;;;0.34;78.53
75312;BME280;63906;55.686;37.532;2022-12-10T08:54:18;99272.00;;;0.16;77.62
75312;BME280;63906;55.686;37.532;2022-12-10T08:59:19;99251.88;;;0.29;78.53
75312;BME280;63906;55.686;37.532;2022-12-10T09:04:19;99268.78;;;0.43;78.96
75312;BME280;63906;55.686;37.532;2022-12-10T09:09:20;99270.41;;;0.34;79.36
75312;BME280;63906;55.686;37.532;2022-12-10T09:14:20;99280.47;;;0.37;79.59
75312;BME280;63906;55.686;37.532;2022-12-10T09:19:21;99279.56;;;0.48;79.44
75312;BME280;63906;55.686;37.532;2022-12-10T09:24:22;99279.66;;;0.27;78.92
75312;BME280;63906;55.686;37.532;2022-12-10T09:29:22;99285.31;;;0.11;78.63
75312;BME280;63906;55.686;37.532;2022-12-10T09:34:23;99266.03;;;-0.15;78.49
75312;BME280;63906;55.686;37.532;2022-12-10T09:39:23;99261.03;;;-0.07;78.59
75312;BME280;63906;55.686;37.532;2022-12-10T09:55:20;99258.84;;;-0.12;78.28
75312;BME280;63906;55.686;37.532;2022-12-10T10:00:25;99270.78;;;0.20;79.08
75312;BME280;63906;55.686;37.532;2022-12-10T10:10:36;99260.41;;;0.01;79.72
75312;BME280;63906;55.686;37.532;2022-12-10T10:15:43;99243.94;;;-0.29;79.08
75312;BME280;63906;55.686;37.532;2022-12-10T10:20:44;99239.84;;;0.09;79.42
75312;BME280;63906;55.686;37.532;2022-12-10T10:25:45;99228.34;;;-0.08;79.51
75312;BME280;63906;55.686;37.532;2022-12-10T10:30:46;99230.03;;;0.03;79.84
75312;BME280;63906;55.686;37.532;2022-12-10T10:35:54;99221.84;;;-0.03;79.77
75312;BME280;63906;55.686;37.532;2022-12-10T10:40:59;99233.56;;;0.02;79.98
75312;BME280;63906;55.686;37.532;2022-12-10T10:56:27;99180.00;;;-0.08;79.36
75312;BME280;63906;55.686;37.532;2022-12-10T11:01:50;99159.78;;;0.07;79.86
75312;BME280;63906;55.686;37.532;2022-12-10T11:06:54;99194.47;;;0.05;80.70
75312;BME280;63906;55.686;37.532;2022-12-10T11:12:05;99187.53;;;0.05;80.10
75312;BME280;63906;55.686;37.532;2022-12-10T11:17:18;99175.16;;;0.09;80.72
75312;BME280;63906;55.686;37.532;2022-12-10T11:22:30;99182.03;;;-0.21;80.74
75312;BME280;63906;55.686;37.532;2022-12-10T11:59:28;99138.19;;;-0.22;81.79
75312;BME280;63906;55.686;37.532;2022-12-10T12:16:04;99121.06;;;-0.23;81.47
75312;BME280;63906;55.686;37.532;2022-12-10T12:21:10;99127.84;;;-0.13;81.69
75312;BME280;63906;55.686;37.532;2022-12-10T12:26:17;99113.94;;;-0.31;81.77
75312;BME280;63906;55.686;37.532;2022-12-10T12:31:22;99112.34;;;-0.13;82.06
75312;BME280;63906;55.686;37.532;2022-12-10T12:36:27;99108.53;;;-0.09;81.97
75312;BME280;63906;55.686;37.532;2022-12-10T12:47:25;99122.97;;;-0.16;82.24
75312;BME280;63906;55.686;37.532;2022-12-10T12:52:37;99130.31;;;-0.21;82.09
75312;BME280;63906;55.686;37.532;2022-12-10T12:57:50;99065.91;;;-0.43;82.44
75312;BME280;63906;55.686;37.532;2022-12-10T13:08:32;99111.44;;;0.08;82.14
75312;BME280;63906;55.686;37.532;2022-12-10T13:13:36;99108.56;;;0.11;82.01
75312;BME280;63906;55.686;37.532;2022-12-10T13:18:40;99103.25;;;0.03;81.81
75312;BME280;63906;55.686;37.532;2022-12-10T13:23:50;99120.16;;;0.26;82.10
75312;BME280;63906;55.686;37.532;2022-12-10T13:28:52;99109.25;;;0.13;81.68
75312;BME280;63906;55.686;37.532;2022-12-10T13:44:37;99112.78;;;0.31;81.64
75312;BME280;63906;55.686;37.532;2022-12-10T13:50:18;99103.09;;;0.23;81.85
75312;BME280;63906;55.686;37.532;2022-12-10T13:55:28;99116.19;;;0.32;81.93
75312;BME280;63906;55.686;37.532;2022-12-10T14:00:49;99092.09;;;0.31;82.11
75312;BME280;63906;55.686;37.532;2022-12-10T14:11:19;99075.59;;;0.32;81.72
75312;BME280;63906;55.686;37.532;2022-12-10T14:16:22;99069.06;;;0.28;82.14
75312;BME280;63906;55.686;37.532;2022-12-10T14:21:24;99073.38;;;0.47;82.27
75312;BME280;63906;55.686;37.532;2022-12-10T14:26:32;99059.78;;;0.35;82.19
75312;BME280;63906;55.686;37.532;2022-12-10T14:31:42;99049.16;;;0.38;82.57
75312;BME280;63906;55.686;37.532;2022-12-10T14:36:46;99025.06;;;0.28;82.55
75312;BME280;63906;55.686;37.532;2022-12-10T14:41:51;99042.88;;;0.50;82.36
75312;BME280;63906;55.686;37.532;2022-12-10T14:47:03;98999.16;;;0.28;82.54
75312;BME280;63906;55.686;37.532;2022-12-10T14:52:10;99011.00;;;0.40;83.25
75312;BME280;63906;55.686;37.532;2022-12-10T14:57:16;99006.78;;;0.39;83.03
75312;BME280;63906;55.686;37.532;2022-12-10T15:02:24;98970.28;;;0.33;83.44
75312;BME280;63906;55.686;37.532;2022-12-10T15:07:30;98959.22;;;0.40;82.80
75312;BME280;63906;55.686;37.532;2022-12-10T15:12:42;98981.97;;;0.46;83.18
75312;BME280;63906;55.686;37.532;2022-12-10T15:18:15;98986.16;;;0.57;83.00
75312;BME280;63906;55.686;37.532;2022-12-10T15:23:30;98967.34;;;0.55;83.43
75312;BME280;63906;55.686;37.532;2022-12-10T15:28:34;98955.09;;;0.57;83.33
75312;BME280;63906;55.686;37.532;2022-12-10T15:33:39;98933.81;;;0.53;84.02
75312;BME280;63906;55.686;37.532;2022-12-10T15:38:43;98902.81;;;0.44;83.73
75312;BME280;63906;55.686;37.532;2022-12-10T15:43:57;98884.31;;;0.39;83.61
75312;BME280;63906;55.686;37.532;2022-12-10T15:48:58;98876.09;;;0.43;83.74
75312;BME280;63906;55.686;37.532;2022-12-10T15:53:58;98910.72;;;0.70;83.74
75312;BME280;63906;55.686;37.532;2022-12-10T15:58:59;98895.06;;;0.62;84.13
75312;BME280;63906;55.686;37.532;2022-12-10T16:03:59;98882.59;;;0.57;83.84
75312;BME280;63906;55.686;37.532;2022-12-10T16:09:00;98876.19;;;0.51;84.46
75312;BME280;63906;55.686;37.532;2022-12-10T16:14:00;98882.28;;;0.60;84.09
75312;BME280;63906;55.686;37.532;2022-12-10T16:19:08;98839.59;;;0.37;84.09
75312;BME280;63906;55.686;37.532;2022-12-10T16:24:09;98832.28;;;0.32;84.10
75312;BME280;63906;55.686;37.532;2022-12-10T16:29:10;98830.75;;;0.39;84.84
75312;BME280;63906;55.686;37.532;2022-12-10T16:34:10;98831.94;;;0.45;83.72
75312;BME280;63906;55.686;37.532;2022-12-10T16:39:11;98878.16;;;0.67;84.59
75312;BME280;63906;55.686;37.532;2022-12-10T16:44:13;98826.53;;;0.38;84.17
75312;BME280;63906;55.686;37.532;2022-12-10T16:49:14;98832.88;;;0.26;84.67
75312;BME280;63906;55.686;37.532;2022-12-10T16:54:14;98823.00;;;0.39;84.71
75312;BME280;63906;55.686;37.532;2022-12-10T16:59:15;98845.75;;;0.63;84.21
75312;BME280;63906;55.686;37.532;2022-12-10T17:04:15;98808.94;;;0.42;84.73
75312;BME280;63906;55.686;37.532;2022-12-10T17:09:16;98809.09;;;0.40;85.15
75312;BME280;63906;55.686;37.532;2022-12-10T17:19:23;98810.66;;;0.51;84.27
75312;BME280;63906;55.686;37.532;2022-12-10T17:24:24;98808.72;;;0.53;84.55
75312;BME280;63906;55.686;37.532;2022-12-10T17:29:29;98822.34;;;0.73;84.87
75312;BME280;63906;55.686;37.532;2022-12-10T17:34:29;98817.88;;;0.75;84.56
75312;BME280;63906;55.686;37.532;2022-12-10T17:39:30;98792.19;;;0.64;84.76
75312;BME280;63906;55.686;37.532;2022-12-10T17:44:30;98796.41;;;0.65;84.61
75312;BME280;63906;55.686;37.532;2022-12-10T17:49:31;98731.81;;;0.18;84.70
75312;BME280;63906;55.686;37.532;2022-12-10T17:54:32;98792.56;;;0.69;84.53
75312;BME280;63906;55.686;37.532;2022-12-10T17:59:33;98778.69;;;0.60;84.64
75312;BME280;63906;55.686;37.532;2022-12-10T18:04:35;98759.38;;;0.54;84.97
75312;BME280;63906;55.686;37.532;2022-12-10T18:09:36;98773.16;;;0.73;84.64
75312;BME280;63906;55.686;37.532;2022-12-10T18:14:37;98766.94;;;0.66;84.66
75312;BME280;63906;55.686;37.532;2022-12-10T18:19:38;98755.03;;;0.73;85.03
75312;BME280;63906;55.686;37.532;2022-12-10T18:24:39;98666.56;;;0.24;84.46
75312;BME280;63906;55.686;37.532;2022-12-10T18:29:39;98709.53;;;0.52;84.76
75312;BME280;63906;55.686;37.532;2022-12-10T18:34:40;98740.44;;;0.72;84.67
75312;BME280;63906;55.686;37.532;2022-12-10T18:39:40;98716.72;;;0.59;84.84
75312;BME280;63906;55.686;37.532;2022-12-10T18:44:41;98734.53;;;0.62;84.98
75312;BME280;63906;55.686;37.532;2022-12-10T18:49:42;98739.09;;;0.68;85.02
75312;BME280;63906;55.686;37.532;2022-12-10T18:54:42;98734.75;;;0.68;85.02
75312;BME280;63906;55.686;37.532;2022-12-10T18:59:43;98690.88;;;0.49;84.86
75312;BME280;63906;55.686;37.532;2022-12-10T19:04:44;98697.94;;;0.39;85.05
75312;BME280;63906;55.686;37.532;2022-12-10T19:09:44;98704.34;;;0.52;85.36
75312;BME280;63906;55.686;37.532;2022-12-10T19:14:45;98732.91;;;0.61;85.06
75312;BME280;63906;55.686;37.532;2022-12-10T19:19:46;98723.88;;;0.65;85.05
75312;BME280;63906;55.686;37.532;2022-12-10T19:24:46;98702.19;;;0.66;84.95
75312;BME280;63906;55.686;37.532;2022-12-10T19:29:47;98693.84;;;0.72;84.76
75312;BME280;63906;55.686;37.532;2022-12-10T19:34:47;98652.25;;;0.56;84.83
75312;BME280;63906;55.686;37.532;2022-12-10T19:39:48;98664.38;;;0.73;84.77
75312;BME280;63906;55.686;37.532;2022-12-10T19:44:48;98679.03;;;0.82;84.85
75312;BME280;63906;55.686;37.532;2022-12-10T19:49:49;98668.47;;;0.75;85.01
75312;BME280;63906;55.686;37.532;2022-12-10T19:54:49;98629.31;;;0.61;85.00
75312;BME280;63906;55.686;37.532;2022-12-10T19:59:50;98662.16;;;0.78;84.84
75312;BME280;63906;55.686;37.532;2022-12-10T20:04:50;98663.78;;;0.79;85.14
75312;BME280;63906;55.686;37.532;2022-12-10T20:09:51;98671.09;;;0.84;84.95
75312;BME280;63906;55.686;37.532;2022-12-10T20:14:51;98633.19;;;0.57;84.97
75312;BME280;63906;55.686;37.532;2022-12-10T20:19:52;98673.94;;;0.72;84.77
75312;BME280;63906;55.686;37.532;2022-12-10T20:24:53;98616.94;;;0.46;84.89
75312;BME280;63906;55.686;37.532;2022-12-10T20:29:54;98623.69;;;0.65;85.54
75312;BME280;63906;55.686;37.532;2022-12-10T20:34:54;98648.44;;;0.86;84.98
75312;BME280;63906;55.686;37.532;2022-12-10T20:39:55;98624.34;;;0.67;85.55
75312;BME280;63906;55.686;37.532;2022-12-10T20:44:55;98625.94;;;0.60;84.97
75312;BME280;63906;55.686;37.532;2022-12-10T20:49:56;98638.59;;;0.63;85.58
75312;BME280;63906;55.686;37.532;2022-12-10T20:54:56;98636.50;;;0.67;85.71
75312;BME280;63906;55.686;37.532;2022-12-10T20:59:57;98616.84;;;0.56;85.66
75312;BME280;63906;55.686;37.532;2022-12-10T21:04:58;98629.84;;;0.64;85.63
75312;BME280;63906;55.686;37.532;2022-12-10T21:09:59;98625.78;;;0.62;84.88
75312;BME280;63906;55.686;37.532;2022-12-10T21:14:59;98633.91;;;0.67;84.89
75312;BME280;63906;55.686;37.532;2022-12-10T21:20:00;98619.88;;;0.51;85.58
75312;BME280;63906;55.686;37.532;2022-12-10T21:25:00;98647.16;;;0.64;85.22
75312;BME280;63906;55.686;37.532;2022-12-10T21:30:01;98655.31;;;0.69;84.96
75312;BME280;63906;55.686;37.532;2022-12-10T21:35:02;98618.91;;;0.52;85.04
75312;BME280;63906;55.686;37.532;2022-12-10T21:40:03;98631.91;;;0.61;85.27
75312;BME280;63906;55.686;37.532;2022-12-10T21:45:04;98612.41;;;0.48;85.21
75312;BME280;63906;55.686;37.532;2022-12-10T21:50:04;98626.97;;;0.49;84.67
75312;BME280;63906;55.686;37.532;2022-12-10T21:55:05;98641.44;;;0.78;85.60
75312;BME280;63906;55.686;37.532;2022-12-10T22:00:06;98592.97;;;0.44;85.04
75312;BME280;63906;55.686;37.532;2022-12-10T22:05:09;98620.88;;;0.76;85.56
75312;BME280;63906;55.686;37.532;2022-12-10T22:10:11;98609.19;;;0.72;85.15
75312;BME280;63906;55.686;37.532;2022-12-10T22:15:12;98605.78;;;0.72;84.94
75312;BME280;63906;55.686;37.532;2022-12-10T22:20:13;98583.69;;;0.60;85.10
75312;BME280;63906;55.686;37.532;2022-12-10T22:25:14;98611.88;;;0.89;85.29
75312;BME280;63906;55.686;37.532;2022-12-10T22:30:14;98619.50;;;0.90;84.91
75312;BME280;63906;55.686;37.532;2022-12-10T22:35:15;98581.53;;;0.55;84.32
75312;BME280;63906;55.686;37.532;2022-12-10T22:40:15;98619.75;;;0.79;84.89
75312;BME280;63906;55.686;37.532;2022-12-10T22:45:17;98630.31;;;0.86;84.81
75312;BME280;63906;55.686;37.532;2022-12-10T22:50:18;98597.66;;;0.67;84.67
75312;BME280;63906;55.686;37.532;2022-12-10T22:55:18;98612.28;;;0.76;85.05
75312;BME280;63906;55.686;37.532;2022-12-10T23:00:19;98606.94;;;0.77;85.26
75312;BME280;63906;55.686;37.532;2022-12-10T23:05:19;98609.75;;;0.84;85.12
75312;BME280;63906;55.686;37.532;2022-12-10T23:10:20;98592.88;;;0.80;85.40
75312;BME280;63906;55.686;37.532;2022-12-10T23:15:21;98611.34;;;0.85;85.30
75312;BME280;63906;55.686;37.532;2022-12-10T23:20:22;98638.00;;;0.95;84.43
75312;BME280;63906;55.686;37.532;2022-12-10T23:25:23;98597.41;;;0.78;85.12
75312;BME280;63906;55.686;37.532;2022-12-10T23:30:24;98631.69;;;0.98;85.34
75312;BME280;63906;55.686;37.532;2022-12-10T23:35:24;98617.00;;;0.80;85.24
75312;BME280;63906;55.686;37.532;2022-12-10T23:40:25;98638.00;;;0.95;85.10
75312;BME280;63906;55.686;37.532;2022-12-10T23:45:25;98611.59;;;0.74;84.76
75312;BME280;63906;55.686;37.532;2022-12-10T23:50:26;98650.50;;;1.00;85.34
75312;BME280;63906;55.686;37.532;2022-12-10T23:55:27;98664.91;;;1.02;85.08
